Kankakee, Illinois
Current Conditions -  °F | °C
As of 3:35 AM on Monday 20 Oct 2014 (Local Time) from KIKK Reporting Station
Overcast Overcast  
Wind Chill: 45°   Ceiling: 6000
Heat Index: 49°   Visibility: 10mi
Dew Point: 45°   Wind: 9mph
Humidity: 86%   Direction: 190°S
Pressure: 29.88"   Gusts: NA
Location:  41.12°N, 87.86°W
Report Text: KIKK 200835Z AUTO 19008KT 10SM OVC060 10/07 A2988 RMK AO2 T00950073
Loading
Personal Weather Stations






























Interactive Weather Map New forecast layout! Learn more

10-Day Weather Forecast

Advertisements
Track Severe Weather on mobile